Etusivu
METAR-TAF:

METAR-TAF

Lentoasemat :

Moskova-Šeremetjevo, Venäjä

Šeremetjevon kansainvälinen lentoasema

Leveyspiiri: 55-59N, Pituuspiiri: 037-30E, korkeus merenpinnasta: 190 m

Tämänhetkinen sää

Tämä raportti tehtiin 28 minuuttia sitten, kello 16.30 UTC
Tuuli 6 kn etelästä/kaakosta
Lämpötila 27°C
Kosteus 51%
Ilmanpaine 1020 hPa
Näkyvyys 10 km tai enemmän
ei pilviä alle 1500 m:ssä eikä cumulonimbus-pilviä

METAR: UUEE 191630Z 16003MPS CAVOK 27/16 Q1020 R24R/CLRD62 R24L/CLRD62 NOSIG

Aika: 19:58 (16:58 UTC)

Sääennuste

Tämä raportti tehtiin 3 tuntia ja 1 minuuttia sitten, kello 13.57 UTC
Ennuste voimassa 19. päivästä klo 15 UTC - 20. päivään klo 15 UTC
Tuuli 6 kn etelästä
Näkyvyys 10 km tai enemmän
ei pilviä alle 1500 m:ssä eikä cumulonimbus-pilviä

TAF: UUEE 191357Z 1915/2015 18003MPS CAVOK TX31/2012Z TN18/2002Z

Säähavainnot ja -ennusteet yli 4000 lentoasemalta (METAR- ja TAF-raportit).

Käytössä olevat sääasemat on merkitty karttaan keltaisilla ja punaisilla pisteillä.

Aseta hiiri pisteen päälle nähdäksesi sääaseman nimen.

Klikkaa sitten nähdäksesi säähavainnot ja -ennusteet.

Kartan vaihtaminen: klikkaa mustalla rastilla varustettuja vihreitä pisteitä, niin voit zoomata sisään; viivalla varustettua vihreää pistettä, niin voit zoomata ulos tai vihreitä nuolia, niin pääset viereisille kartoille.


METAR-TAF: